Time;durP1;ratioP1;P1;durP2;ratioP2;P2;SDS_P1;SDS_P2;PMS_P1;PMS_P2;Temp;Humidity;BMP_temperature;BMP_pressure;BME280_temperature;BME280_humidity;BME280_pressure;Samples;Min_cycle;Max_cycle;Signal;HPM_P1;HPM_P2
2022/01/09 00:01:29;;;;;;;3.53;2.13;;;7.20;83.30;;;;;;5093938;28;20073;-61
2022/01/09 00:03:55;;;;;;;4.93;2.23;;;7.30;83.30;;;;;;5094236;28;20036;-61
2022/01/09 00:06:21;;;;;;;4.97;2.37;;;7.30;83.30;;;;;;5079621;28;20111;-61
2022/01/09 00:08:47;;;;;;;6.13;2.87;;;7.30;83.30;;;;;;5093632;28;20028;-61
2022/01/09 00:11:14;;;;;;;5.90;2.80;;;7.30;83.20;;;;;;5094769;28;20052;-59
2022/01/09 00:13:40;;;;;;;6.30;2.90;;;7.30;83.20;;;;;;5094414;28;20114;-59
2022/01/09 00:16:06;;;;;;;5.53;2.73;;;7.30;83.20;;;;;;5094639;28;20057;-59
2022/01/09 00:18:31;;;;;;;5.50;2.80;;;7.30;83.30;;;;;;5094879;28;20068;-59
2022/01/09 00:20:58;;;;;;;5.23;2.70;;;7.40;83.30;;;;;;5093069;28;20074;-59
2022/01/09 00:23:23;;;;;;;5.43;2.50;;;7.30;83.30;;;;;;5094317;28;20448;-59
2022/01/09 00:25:49;;;;;;;5.03;2.43;;;7.40;83.30;;;;;;5093582;28;20030;-59
2022/01/09 00:28:15;;;;;;;5.33;2.57;;;7.30;83.30;;;;;;5075570;28;20036;-62
2022/01/09 00:30:40;;;;;;;5.60;2.70;;;7.40;83.30;;;;;;5093995;28;20514;-59
2022/01/09 00:33:07;;;;;;;4.60;2.40;;;7.30;83.30;;;;;;5094183;28;20074;-59
2022/01/09 00:35:34;;;;;;;4.60;2.40;;;7.40;83.30;;;;;;5093899;28;20028;-59
2022/01/09 00:38:00;;;;;;;6.10;2.50;;;7.40;83.30;;;;;;5094439;28;20115;-59
2022/01/09 00:40:25;;;;;;;5.23;2.50;;;7.30;83.20;;;;;;5092381;28;20106;-60
2022/01/09 00:42:51;;;;;;;5.27;2.60;;;7.40;83.30;;;;;;5093843;28;20031;-59
2022/01/09 00:45:17;;;;;;;5.63;2.50;;;7.40;83.30;;;;;;5092841;28;20026;-59
2022/01/09 00:47:44;;;;;;;4.20;2.30;;;7.40;83.30;;;;;;5094366;28;20423;-60
2022/01/09 00:50:11;;;;;;;5.03;2.53;;;7.40;83.30;;;;;;5093731;28;20031;-60
2022/01/09 00:52:37;;;;;;;5.03;2.50;;;7.40;83.30;;;;;;5094361;28;20457;-60
2022/01/09 00:55:05;;;;;;;4.43;2.33;;;7.40;83.30;;;;;;5093290;28;20042;-60
2022/01/09 00:57:31;;;;;;;4.57;2.37;;;7.40;83.30;;;;;;5093969;28;20123;-60
2022/01/09 00:59:56;;;;;;;4.43;2.40;;;7.40;83.30;;;;;;5092375;28;20039;-60
2022/01/09 01:02:22;;;;;;;4.83;2.60;;;7.40;83.30;;;;;;5094043;28;20040;-60
2022/01/09 01:04:51;;;;;;;5.87;2.80;;;7.40;83.30;;;;;;5092157;28;20084;-59
2022/01/09 01:07:18;;;;;;;4.97;2.70;;;7.40;83.30;;;;;;5093320;28;20134;-60
2022/01/09 01:09:44;;;;;;;5.40;2.50;;;7.40;83.40;;;;;;5093285;28;20024;-60
2022/01/09 01:12:09;;;;;;;5.77;2.83;;;7.40;83.40;;;;;;5092579;28;20028;-60
2022/01/09 01:14:35;;;;;;;5.30;2.60;;;7.40;83.50;;;;;;5093312;28;20430;-60
2022/01/09 01:17:00;;;;;;;5.17;2.57;;;7.40;83.50;;;;;;5095062;28;20420;-60
2022/01/09 01:19:26;;;;;;;4.97;2.80;;;7.40;83.50;;;;;;5098149;28;20028;-60
2022/01/09 01:21:52;;;;;;;5.40;3.23;;;7.40;83.50;;;;;;5097580;28;20040;-60
2022/01/09 01:24:20;;;;;;;7.10;3.60;;;7.40;83.60;;;;;;5097546;28;20038;-60
2022/01/09 01:26:46;;;;;;;6.30;3.10;;;7.50;83.60;;;;;;5091758;28;20044;-59
2022/01/09 01:29:11;;;;;;;6.40;3.40;;;7.40;83.60;;;;;;5096928;28;20117;-59
2022/01/09 01:31:37;;;;;;;6.17;3.20;;;7.40;83.60;;;;;;5097606;28;20031;-60
2022/01/09 01:34:03;;;;;;;6.07;3.33;;;7.40;83.70;;;;;;5097278;28;20067;-60
2022/01/09 01:36:28;;;;;;;4.37;2.27;;;7.50;83.90;;;;;;5097292;28;20092;-60
2022/01/09 01:38:54;;;;;;;3.83;2.23;;;7.50;83.90;;;;;;5096897;28;20119;-59
2022/01/09 01:41:19;;;;;;;6.20;2.80;;;7.50;83.90;;;;;;5096162;28;20040;-59
2022/01/09 01:43:46;;;;;;;5.07;2.13;;;7.50;83.90;;;;;;5095989;28;20020;-60
2022/01/09 01:46:12;;;;;;;4.07;1.70;;;7.50;83.90;;;;;;5095578;28;20595;-60
2022/01/09 01:48:37;;;;;;;9.17;2.27;;;7.50;83.80;;;;;;5098003;28;20119;-60
2022/01/09 01:51:03;;;;;;;3.97;1.67;;;7.50;83.70;;;;;;5096144;28;20032;-59
2022/01/09 01:53:29;;;;;;;8.43;1.70;;;7.60;83.70;;;;;;5096276;28;20024;-60
2022/01/09 01:55:56;;;;;;;5.57;1.90;;;7.60;83.70;;;;;;5096437;28;20031;-59
2022/01/09 01:58:24;;;;;;;8.93;1.90;;;7.60;83.60;;;;;;5096469;28;20040;-59
2022/01/09 02:00:50;;;;;;;9.03;2.20;;;7.70;83.60;;;;;;5095899;28;20040;-59
2022/01/09 02:03:15;;;;;;;9.30;2.20;;;7.70;84.10;;;;;;5095536;28;20036;-60
2022/01/09 02:05:42;;;;;;;8.83;1.80;;;7.70;83.50;;;;;;5087714;28;20154;-59
2022/01/09 02:08:08;;;;;;;11.40;2.50;;;7.70;83.50;;;;;;5095005;28;20031;-59
2022/01/09 02:10:34;;;;;;;8.80;2.20;;;7.70;83.60;;;;;;5079060;28;20035;-60
2022/01/09 02:13:00;;;;;;;9.80;2.80;;;7.70;83.60;;;;;;5096846;28;20020;-60
2022/01/09 02:15:27;;;;;;;10.87;2.73;;;7.70;83.60;;;;;;5096170;28;20751;-60
2022/01/09 02:17:53;;;;;;;12.77;2.43;;;7.70;83.60;;;;;;5095749;28;20028;-59
2022/01/09 02:20:19;;;;;;;11.80;3.37;;;7.80;83.70;;;;;;5097029;28;20081;-60
2022/01/09 02:22:45;;;;;;;10.93;2.30;;;7.80;83.70;;;;;;5096226;28;20024;-60
2022/01/09 02:25:10;;;;;;;13.27;2.20;;;7.80;83.70;;;;;;5094981;28;20032;-59
2022/01/09 02:27:37;;;;;;;12.83;3.27;;;7.80;83.80;;;;;;5095840;28;20040;-60
2022/01/09 02:30:05;;;;;;;10.67;2.87;;;7.80;83.80;;;;;;5095730;28;20039;-60
2022/01/09 02:32:30;;;;;;;14.83;3.57;;;7.80;83.80;;;;;;5096131;28;20028;-60
2022/01/09 02:34:56;;;;;;;15.07;2.90;;;7.80;83.80;;;;;;5096310;28;20107;-60
2022/01/09 02:37:21;;;;;;;15.37;3.73;;;7.90;83.80;;;;;;5095443;28;20049;-60
2022/01/09 02:39:49;;;;;;;13.97;3.07;;;7.90;83.80;;;;;;5095445;28;20032;-60
2022/01/09 02:42:24;;;;;;;14.07;3.80;;;7.90;83.80;;;;;;5096023;28;20036;-60
2022/01/09 02:44:51;;;;;;;15.90;2.83;;;7.90;83.90;;;;;;5095632;28;20088;-60
2022/01/09 02:47:17;;;;;;;14.97;3.37;;;8.00;84.00;;;;;;5095671;28;20107;-60
2022/01/09 02:49:48;;;;;;;18.60;3.73;;;7.90;84.00;;;;;;5096328;28;20028;-60
2022/01/09 02:52:27;;;;;;;18.63;3.30;;;7.90;84.00;;;;;;5095824;28;20028;-60
2022/01/09 02:55:12;;;;;;;16.87;3.67;;;8.00;84.10;;;;;;5095682;28;20042;-60
2022/01/09 02:57:42;;;;;;;14.87;3.57;;;7.90;84.10;;;;;;5094804;28;20119;-59
2022/01/09 03:00:11;;;;;;;16.07;3.07;;;8.00;84.10;;;;;;5096622;28;20044;-60
2022/01/09 03:02:36;;;;;;;17.23;3.20;;;8.00;84.10;;;;;;5094659;28;20024;-60
2022/01/09 03:05:03;;;;;;;13.17;4.20;;;8.00;84.20;;;;;;5094263;28;20032;-60
2022/01/09 03:07:28;;;;;;;17.13;3.30;;;8.00;84.20;;;;;;5094242;28;20441;-60
2022/01/09 03:09:54;;;;;;;15.68;3.28;;;8.00;84.20;;;;;;5096057;28;20042;-60
2022/01/09 03:12:20;;;;;;;20.40;4.03;;;8.00;84.20;;;;;;5095432;28;20020;-60
2022/01/09 03:14:46;;;;;;;19.30;3.20;;;8.00;84.10;;;;;;5094011;28;20025;-60
2022/01/09 03:17:12;;;;;;;13.57;3.30;;;8.00;84.20;;;;;;5095321;28;20085;-60
2022/01/09 03:19:37;;;;;;;21.70;4.60;;;8.00;84.20;;;;;;5094917;28;20036;-60
2022/01/09 03:22:03;;;;;;;18.50;3.80;;;8.00;84.30;;;;;;5095109;28;20024;-60
2022/01/09 03:24:29;;;;;;;13.93;3.72;;;8.00;84.30;;;;;;5094227;28;20031;-60
2022/01/09 03:26:54;;;;;;;16.07;3.57;;;8.10;84.30;;;;;;5095330;28;20039;-60
2022/01/09 03:29:20;;;;;;;18.70;4.13;;;8.10;84.30;;;;;;5093757;28;20043;-60
2022/01/09 03:31:45;;;;;;;16.58;3.88;;;8.10;84.30;;;;;;5077575;28;20169;-60
2022/01/09 03:34:11;;;;;;;15.77;3.93;;;8.10;84.30;;;;;;5094100;28;20028;-60
2022/01/09 03:36:37;;;;;;;11.13;2.80;;;8.10;84.20;;;;;;5094644;28;20020;-60
2022/01/09 03:39:02;;;;;;;14.83;3.13;;;8.10;84.20;;;;;;5094749;28;20093;-60
2022/01/09 03:41:28;;;;;;;13.70;2.90;;;8.10;84.10;;;;;;5094120;28;20052;-60
2022/01/09 03:43:53;;;;;;;15.27;3.47;;;8.10;84.10;;;;;;5094613;28;20042;-60
2022/01/09 03:46:19;;;;;;;14.33;2.90;;;8.10;84.10;;;;;;5095347;28;20064;-60
2022/01/09 03:48:44;;;;;;;21.47;4.17;;;8.10;84.10;;;;;;5094382;28;20074;-60
2022/01/09 03:51:11;;;;;;;20.77;4.67;;;8.10;84.00;;;;;;5095237;28;20340;-60
2022/01/09 03:53:37;;;;;;;15.70;3.23;;;8.10;84.00;;;;;;5094110;28;20028;-60
2022/01/09 03:56:03;;;;;;;14.83;3.57;;;8.10;84.00;;;;;;5094519;28;20032;-60
2022/01/09 03:58:29;;;;;;;15.60;3.13;;;8.10;84.00;;;;;;5094236;28;20023;-60
2022/01/09 04:00:54;;;;;;;11.17;2.90;;;8.10;84.00;;;;;;5094666;28;20440;-60
2022/01/09 04:03:20;;;;;;;16.27;3.60;;;8.10;84.00;;;;;;5094102;28;20399;-59
2022/01/09 04:05:46;;;;;;;16.67;3.23;;;8.00;83.90;;;;;;5094256;28;20028;-60
2022/01/09 04:08:11;;;;;;;17.67;3.50;;;8.00;83.90;;;;;;5093279;28;20141;-60
2022/01/09 04:10:41;;;;;;;18.13;3.53;;;8.00;83.90;;;;;;5093829;28;20059;-59
2022/01/09 04:13:08;;;;;;;12.73;3.30;;;8.00;83.90;;;;;;5094256;28;20031;-60
2022/01/09 04:15:33;;;;;;;15.27;2.87;;;8.00;83.90;;;;;;5094832;28;20099;-60
2022/01/09 04:18:00;;;;;;;16.13;3.00;;;8.00;84.10;;;;;;5094071;28;20490;-59
2022/01/09 04:20:30;;;;;;;22.00;3.00;;;8.00;83.70;;;;;;5094420;28;20028;-60
2022/01/09 04:22:56;;;;;;;19.80;3.90;;;8.10;83.70;;;;;;5093978;28;20085;-60
2022/01/09 04:25:22;;;;;;;18.20;4.03;;;8.10;83.70;;;;;;5094214;28;20050;-60
2022/01/09 04:27:49;;;;;;;13.10;3.20;;;8.10;83.60;;;;;;5093157;28;20090;-59
2022/01/09 04:30:16;;;;;;;17.02;3.25;;;8.10;83.60;;;;;;5093145;28;20040;-60
2022/01/09 04:32:42;;;;;;;13.67;3.20;;;8.10;83.50;;;;;;5094499;28;20042;-60
2022/01/09 04:35:08;;;;;;;11.13;2.27;;;8.00;83.40;;;;;;5093802;28;20032;-60
2022/01/09 04:37:35;;;;;;;11.17;2.67;;;8.00;83.50;;;;;;5093201;28;20077;-60
2022/01/09 04:40:01;;;;;;;10.57;2.97;;;8.00;83.50;;;;;;5091123;28;20120;-59
2022/01/09 04:42:35;;;;;;;17.23;3.20;;;8.00;83.40;;;;;;5091693;28;20032;-60
2022/01/09 04:45:01;;;;;;;19.67;3.50;;;8.00;83.30;;;;;;5091264;28;20042;-59
2022/01/09 04:47:26;;;;;;;13.97;3.10;;;8.00;83.30;;;;;;5091420;28;20028;-59
2022/01/09 04:49:52;;;;;;;15.57;3.27;;;8.00;83.20;;;;;;5091755;28;20039;-60
2022/01/09 04:52:22;;;;;;;14.10;3.30;;;8.00;83.20;;;;;;5092081;28;20031;-59
2022/01/09 04:54:47;;;;;;;14.38;2.53;;;8.00;83.20;;;;;;5091953;28;20085;-59
2022/01/09 04:57:13;;;;;;;13.13;2.80;;;8.00;83.10;;;;;;5091383;28;20020;-60
2022/01/09 04:59:39;;;;;;;14.02;2.97;;;8.00;83.00;;;;;;5092330;28;20088;-60
2022/01/09 05:02:05;;;;;;;15.10;2.60;;;8.00;82.90;;;;;;5092152;28;20027;-59
2022/01/09 05:04:30;;;;;;;14.57;2.43;;;8.00;82.90;;;;;;5092064;28;20512;-60
2022/01/09 05:06:56;;;;;;;20.07;4.33;;;8.00;82.90;;;;;;5091696;28;20105;-60
2022/01/09 05:09:21;;;;;;;13.73;2.90;;;7.90;82.70;;;;;;5090831;28;20024;-60
2022/01/09 05:11:47;;;;;;;18.13;3.63;;;7.90;82.70;;;;;;5092164;28;20028;-60
2022/01/09 05:14:12;;;;;;;20.93;3.87;;;7.90;82.80;;;;;;5090851;28;20028;-60
2022/01/09 05:16:42;;;;;;;10.80;2.33;;;7.90;82.80;;;;;;5092227;28;20024;-60
2022/01/09 05:19:17;;;;;;;12.18;2.83;;;7.90;82.70;;;;;;5092239;28;20042;-60
2022/01/09 05:21:42;;;;;;;12.97;3.10;;;7.90;82.70;;;;;;5091769;28;20118;-59
2022/01/09 05:24:08;;;;;;;10.03;2.60;;;7.90;82.60;;;;;;5091103;28;20116;-60
2022/01/09 05:26:34;;;;;;;15.43;3.27;;;7.90;82.50;;;;;;5091876;28;20433;-60
2022/01/09 05:29:00;;;;;;;13.20;2.57;;;7.90;82.40;;;;;;5090629;28;20028;-60
2022/01/09 05:31:26;;;;;;;12.23;3.53;;;7.90;82.40;;;;;;5092238;28;20059;-60
2022/01/09 05:33:52;;;;;;;13.05;3.15;;;7.90;82.30;;;;;;5091951;28;20093;-60
2022/01/09 05:36:17;;;;;;;15.93;2.83;;;7.90;82.20;;;;;;5091469;28;20032;-60
2022/01/09 05:38:43;;;;;;;12.73;2.90;;;7.90;82.10;;;;;;5090998;28;20089;-60
2022/01/09 05:41:09;;;;;;;15.70;2.95;;;8.00;82.10;;;;;;5073906;28;20031;-60
2022/01/09 05:43:34;;;;;;;14.47;3.20;;;7.90;82.00;;;;;;5092275;28;20032;-59
2022/01/09 05:46:00;;;;;;;16.23;3.35;;;7.90;82.00;;;;;;5091790;28;20352;-60
2022/01/09 05:48:25;;;;;;;13.20;2.35;;;7.90;81.90;;;;;;5091693;28;20024;-60
2022/01/09 05:50:51;;;;;;;14.07;4.03;;;7.80;81.90;;;;;;5091674;28;20101;-60
2022/01/09 05:53:17;;;;;;;12.30;3.08;;;7.80;81.90;;;;;;5092035;28;20365;-60
2022/01/09 05:55:42;;;;;;;12.60;2.70;;;7.80;81.90;;;;;;5091407;28;20035;-59
2022/01/09 05:58:08;;;;;;;16.93;3.57;;;7.80;81.80;;;;;;5091579;28;20028;-59
2022/01/09 06:00:33;;;;;;;11.93;2.80;;;7.80;81.80;;;;;;5090661;28;20057;-60
2022/01/09 06:02:59;;;;;;;14.63;2.90;;;7.80;81.70;;;;;;5091965;28;20032;-60
2022/01/09 06:05:25;;;;;;;10.33;2.70;;;7.80;81.60;;;;;;5094776;28;20054;-60
2022/01/09 06:07:50;;;;;;;15.03;2.30;;;7.80;81.60;;;;;;5077661;28;20369;-59
2022/01/09 06:10:16;;;;;;;10.27;2.53;;;7.70;81.60;;;;;;5077343;28;20040;-59
2022/01/09 06:12:41;;;;;;;10.73;2.57;;;7.70;81.60;;;;;;5095432;28;20032;-60
2022/01/09 06:15:09;;;;;;;12.00;2.97;;;7.80;81.60;;;;;;5093820;28;20020;-60
2022/01/09 06:17:37;;;;;;;12.90;2.37;;;7.80;81.60;;;;;;5094498;28;20360;-59
2022/01/09 06:20:04;;;;;;;10.20;2.63;;;7.80;81.50;;;;;;5093870;28;20035;-60
2022/01/09 06:22:30;;;;;;;10.93;2.40;;;7.80;81.50;;;;;;5093529;28;20035;-60
2022/01/09 06:24:55;;;;;;;17.83;3.67;;;7.70;81.50;;;;;;5094007;28;20119;-60
2022/01/09 06:27:21;;;;;;;14.37;3.17;;;7.80;81.50;;;;;;5106948;28;20492;-60
2022/01/09 06:29:47;;;;;;;9.90;2.50;;;7.80;81.40;;;;;;5094154;28;20032;-60
2022/01/09 06:32:13;;;;;;;10.20;2.00;;;7.80;81.30;;;;;;5093749;28;20028;-60
2022/01/09 06:34:40;;;;;;;12.07;2.63;;;7.80;81.30;;;;;;5094655;28;20030;-60
2022/01/09 06:37:05;;;;;;;11.30;2.97;;;7.80;81.30;;;;;;5093825;28;20028;-60
2022/01/09 06:39:31;;;;;;;12.73;2.30;;;7.80;81.20;;;;;;5094632;28;20024;-60
2022/01/09 06:41:57;;;;;;;12.30;2.97;;;7.80;81.10;;;;;;5094777;28;20020;-60
2022/01/09 06:44:22;;;;;;;10.13;2.37;;;7.80;81.10;;;;;;5094739;28;20032;-60
2022/01/09 06:46:48;;;;;;;12.23;2.50;;;7.80;81.10;;;;;;5096272;28;20494;-60
2022/01/09 06:49:13;;;;;;;12.20;2.27;;;7.80;81.10;;;;;;5095720;28;20063;-60
2022/01/09 06:51:39;;;;;;;9.37;2.40;;;7.80;81.00;;;;;;5096805;28;20020;-60
2022/01/09 06:54:04;;;;;;;8.87;2.37;;;7.80;81.00;;;;;;5095944;28;20039;-59
2022/01/09 06:56:30;;;;;;;12.23;2.20;;;7.70;80.90;;;;;;5096600;28;20161;-60
2022/01/09 06:58:56;;;;;;;10.47;2.27;;;7.70;80.80;;;;;;5095518;28;20032;-60
2022/01/09 07:01:21;;;;;;;10.33;2.30;;;7.70;80.80;;;;;;5095516;28;20039;-60
2022/01/09 07:03:47;;;;;;;8.23;1.80;;;7.70;80.70;;;;;;5096444;28;20042;-60
2022/01/09 07:06:13;;;;;;;15.30;2.97;;;7.70;80.70;;;;;;5095313;28;20032;-60
2022/01/09 07:08:38;;;;;;;9.73;2.20;;;7.70;80.60;;;;;;5095875;28;20024;-60
2022/01/09 07:11:04;;;;;;;9.73;2.40;;;7.70;80.50;;;;;;5078183;28;20123;-60
2022/01/09 07:13:31;;;;;;;15.57;3.37;;;7.70;80.50;;;;;;5095795;28;20425;-59
2022/01/09 07:15:56;;;;;;;14.57;2.60;;;7.70;80.50;;;;;;5095692;28;20085;-60
2022/01/09 07:18:22;;;;;;;10.07;2.23;;;7.70;80.50;;;;;;5078342;28;20032;-60
2022/01/09 07:20:48;;;;;;;8.30;2.40;;;7.60;80.50;;;;;;5095719;28;20101;-60
2022/01/09 07:23:14;;;;;;;13.40;2.70;;;7.60;80.40;;;;;;5094819;28;20128;-60
2022/01/09 07:25:39;;;;;;;8.27;2.17;;;7.60;80.40;;;;;;5094350;28;20020;-60
2022/01/09 07:28:05;;;;;;;8.13;2.10;;;7.60;80.40;;;;;;5094279;28;20088;-60
2022/01/09 07:30:31;;;;;;;13.73;2.47;;;7.60;80.40;;;;;;5095445;28;20081;-60
2022/01/09 07:32:58;;;;;;;10.83;2.90;;;7.60;80.40;;;;;;5095879;28;20028;-60
2022/01/09 07:35:24;;;;;;;10.70;2.77;;;7.60;80.20;;;;;;5095395;28;20020;-60
2022/01/09 07:37:50;;;;;;;12.30;2.80;;;7.60;80.20;;;;;;5096302;28;20440;-60
2022/01/09 07:40:16;;;;;;;8.43;2.10;;;7.60;80.90;;;;;;5095280;28;20130;-60
2022/01/09 07:42:42;;;;;;;10.70;2.57;;;7.60;80.20;;;;;;5095382;28;20032;-60
2022/01/09 07:45:09;;;;;;;12.57;2.80;;;7.60;80.20;;;;;;5094946;28;20368;-60
2022/01/09 07:47:36;;;;;;;12.13;2.83;;;7.60;80.20;;;;;;5081252;28;20031;-60
2022/01/09 07:50:03;;;;;;;11.97;2.87;;;7.60;80.20;;;;;;5075946;28;20365;-61
2022/01/09 07:52:28;;;;;;;14.00;2.60;;;7.70;80.10;;;;;;5094741;28;20463;-61
2022/01/09 07:54:54;;;;;;;12.57;2.30;;;7.80;80.00;;;;;;5078793;28;20028;-61
2022/01/09 07:57:20;;;;;;;11.43;2.30;;;7.70;79.80;;;;;;5094028;28;20028;-61
2022/01/09 07:59:45;;;;;;;11.57;2.37;;;7.70;79.70;;;;;;5095593;28;20406;-61
2022/01/09 08:02:11;;;;;;;9.63;1.90;;;7.70;79.60;;;;;;5094728;28;20031;-61
2022/01/09 08:04:37;;;;;;;8.37;2.50;;;7.70;79.60;;;;;;5095263;28;20085;-61
2022/01/09 08:07:02;;;;;;;9.80;1.97;;;7.70;79.50;;;;;;5094975;28;20440;-61
2022/01/09 08:09:28;;;;;;;20.50;2.83;;;7.80;79.50;;;;;;5094124;28;20107;-61
2022/01/09 08:11:55;;;;;;;9.17;2.73;;;7.70;79.40;;;;;;5074947;28;20126;-61
2022/01/09 08:14:20;;;;;;;9.17;2.63;;;7.70;79.40;;;;;;5094793;28;20101;-61
2022/01/09 08:16:46;;;;;;;6.17;2.27;;;7.70;79.30;;;;;;5092591;28;20165;-61
2022/01/09 08:19:12;;;;;;;6.20;1.83;;;7.70;79.30;;;;;;5094027;28;20060;-61
2022/01/09 08:21:37;;;;;;;7.53;1.73;;;7.70;79.30;;;;;;5089187;28;20090;-61
2022/01/09 08:24:03;;;;;;;7.77;2.10;;;7.70;79.20;;;;;;5108029;28;20368;-61
2022/01/09 08:26:29;;;;;;;8.70;1.87;;;7.70;79.20;;;;;;5092045;28;20082;-61
2022/01/09 08:28:54;;;;;;;7.77;2.10;;;7.70;79.00;;;;;;5094469;28;20096;-61
2022/01/09 08:31:21;;;;;;;6.90;1.93;;;7.70;79.00;;;;;;5093655;28;20105;-61
2022/01/09 08:33:47;;;;;;;10.33;1.73;;;7.70;78.80;;;;;;5094619;28;20039;-61
2022/01/09 08:36:13;;;;;;;6.10;1.80;;;7.70;78.70;;;;;;5093859;28;20174;-61
2022/01/09 08:38:39;;;;;;;10.43;2.47;;;7.70;78.70;;;;;;5094356;28;20023;-61
2022/01/09 08:41:05;;;;;;;9.17;1.97;;;7.70;78.70;;;;;;5093935;28;20402;-61
2022/01/09 08:43:33;;;;;;;9.07;1.87;;;7.70;78.70;;;;;;5094932;28;20036;-61
2022/01/09 08:45:59;;;;;;;8.60;2.00;;;7.70;78.60;;;;;;5092873;28;20024;-61
2022/01/09 08:48:25;;;;;;;5.63;1.70;;;7.80;78.60;;;;;;5094301;28;20329;-61
2022/01/09 08:50:51;;;;;;;7.47;2.33;;;7.70;78.40;;;;;;5076287;28;20032;-61
2022/01/09 08:53:16;;;;;;;7.20;1.73;;;7.70;78.40;;;;;;5093987;28;20023;-61
2022/01/09 08:55:42;;;;;;;8.77;1.67;;;7.70;78.30;;;;;;5094382;28;20058;-61
2022/01/09 08:58:08;;;;;;;9.83;1.80;;;7.80;78.40;;;;;;5094395;28;20020;-61
2022/01/09 09:00:33;;;;;;;9.93;2.43;;;7.70;78.40;;;;;;5093559;28;20024;-62
2022/01/09 09:02:59;;;;;;;9.80;1.87;;;7.80;78.40;;;;;;5091499;28;20085;-61
2022/01/09 09:05:25;;;;;;;7.20;2.10;;;7.80;78.30;;;;;;5092754;28;20377;-61
2022/01/09 09:07:50;;;;;;;10.73;2.63;;;7.90;78.20;;;;;;5093870;28;20024;-61
2022/01/09 09:10:16;;;;;;;9.97;2.70;;;7.90;78.10;;;;;;5093661;28;20158;-61
2022/01/09 09:12:42;;;;;;;7.57;2.27;;;7.90;77.90;;;;;;5088224;28;20028;-61
2022/01/09 09:15:08;;;;;;;9.57;2.27;;;8.00;77.80;;;;;;5093226;28;20024;-61
2022/01/09 09:17:34;;;;;;;9.40;2.40;;;8.00;77.70;;;;;;5093259;28;20425;-61
2022/01/09 09:19:59;;;;;;;7.13;1.80;;;8.00;77.60;;;;;;5093635;28;20024;-61
2022/01/09 09:22:25;;;;;;;8.23;2.30;;;8.10;77.40;;;;;;5093844;28;20569;-62
2022/01/09 09:24:51;;;;;;;13.30;2.13;;;8.10;77.20;;;;;;5092448;28;20344;-62
2022/01/09 09:27:19;;;;;;;7.77;1.70;;;8.20;77.20;;;;;;5085970;28;20468;-61
2022/01/09 09:29:44;;;;;;;9.53;1.90;;;8.30;77.00;;;;;;5093824;28;20035;-61
2022/01/09 09:32:10;;;;;;;7.47;1.45;;;8.40;76.70;;;;;;5092879;28;20030;-61
2022/01/09 09:34:39;;;;;;;6.40;1.60;;;8.40;76.40;;;;;;5074910;28;20020;-61
2022/01/09 09:37:05;;;;;;;10.93;2.67;;;8.50;76.30;;;;;;5091575;28;20085;-61
2022/01/09 09:39:30;;;;;;;9.97;2.70;;;8.50;76.40;;;;;;5096836;28;20316;-61
2022/01/09 09:41:56;;;;;;;6.80;1.73;;;8.50;76.30;;;;;;5096147;28;20028;-61
2022/01/09 09:44:21;;;;;;;11.00;2.50;;;8.50;76.30;;;;;;5097100;28;20028;-61
2022/01/09 09:46:49;;;;;;;10.00;2.45;;;8.40;76.30;;;;;;5096650;28;20518;-61
2022/01/09 09:49:16;;;;;;;5.57;1.83;;;8.40;76.40;;;;;;5097723;28;20032;-61
2022/01/09 09:51:42;;;;;;;8.07;1.63;;;8.40;76.50;;;;;;5097985;28;20035;-61
2022/01/09 09:54:08;;;;;;;4.77;1.93;;;8.30;76.50;;;;;;5096584;28;20028;-61
2022/01/09 09:56:34;;;;;;;11.65;2.28;;;8.30;76.50;;;;;;5096804;28;20024;-61
2022/01/09 09:59:00;;;;;;;8.48;2.42;;;8.30;76.60;;;;;;5096866;28;20039;-61
2022/01/09 10:01:34;;;;;;;7.75;1.83;;;8.30;76.50;;;;;;5096430;28;20469;-61
2022/01/09 10:04:01;;;;;;;6.77;1.90;;;8.30;76.60;;;;;;5097715;28;20431;-61
2022/01/09 10:06:35;;;;;;;6.87;1.80;;;8.30;76.70;;;;;;5097426;28;20073;-61
2022/01/09 10:09:10;;;;;;;10.83;2.30;;;8.20;76.70;;;;;;5097845;28;20056;-61
2022/01/09 10:11:49;;;;;;;9.07;2.63;;;8.20;76.70;;;;;;5096659;28;20036;-61
2022/01/09 10:14:19;;;;;;;7.87;2.70;;;8.20;76.80;;;;;;5097999;28;20425;-61
2022/01/09 10:17:16;;;;;;;7.53;2.73;;;8.40;76.80;;;;;;5097406;28;20046;-61
2022/01/09 10:19:46;;;;;;;7.22;1.95;;;8.60;76.30;;;;;;5096748;28;20035;-61
2022/01/09 10:22:36;;;;;;;12.25;2.53;;;8.70;76.00;;;;;;5097033;28;20035;-61
2022/01/09 10:25:30;;;;;;;7.43;2.38;;;8.70;75.70;;;;;;5095836;28;20074;-61
2022/01/09 10:28:20;;;;;;;11.23;2.10;;;8.70;75.80;;;;;;5095700;28;20415;-61
2022/01/09 10:30:51;;;;;;;9.17;1.57;;;8.70;75.70;;;;;;5097239;28;20338;-61
2022/01/09 10:33:25;;;;;;;11.75;2.10;;;8.60;75.80;;;;;;5096133;28;20361;-61
2022/01/09 10:35:52;;;;;;;7.97;1.97;;;8.50;75.90;;;;;;5096888;28;20066;-61
2022/01/09 10:38:19;;;;;;;9.87;2.83;;;8.50;76.20;;;;;;5097009;28;20487;-61
2022/01/09 10:41:03;;;;;;;6.73;1.93;;;8.50;76.30;;;;;;5097022;28;20024;-61
2022/01/09 10:43:35;;;;;;;9.60;2.40;;;8.50;76.40;;;;;;5078931;28;20077;-61
2022/01/09 10:46:01;;;;;;;11.73;2.72;;;8.50;76.50;;;;;;5096067;28;20016;-61
2022/01/09 10:48:34;;;;;;;8.05;2.55;;;8.60;76.60;;;;;;5096698;28;20028;-61
2022/01/09 10:51:01;;;;;;;11.97;2.77;;;8.60;76.70;;;;;;5094499;28;20107;-61
2022/01/09 10:53:32;;;;;;;12.93;2.35;;;8.60;76.80;;;;;;5088645;28;20025;-61
2022/01/09 10:56:05;;;;;;;11.95;2.80;;;8.60;76.90;;;;;;5091711;28;20052;-61
2022/01/09 10:58:36;;;;;;;7.20;2.27;;;8.60;77.00;;;;;;5096116;28;20035;-61
2022/01/09 11:01:16;;;;;;;8.65;2.75;;;8.50;77.10;;;;;;5095414;28;20082;-61
2022/01/09 11:03:46;;;;;;;11.85;2.67;;;8.60;77.10;;;;;;5094049;28;20035;-61
2022/01/09 11:06:12;;;;;;;8.88;2.20;;;8.70;77.00;;;;;;5106785;28;20064;-61
2022/01/09 11:08:40;;;;;;;7.70;2.35;;;8.70;76.90;;;;;;5082558;28;20472;-61
2022/01/09 11:11:09;;;;;;;10.27;2.03;;;8.80;76.90;;;;;;5094258;28;20364;-61
2022/01/09 11:13:42;;;;;;;9.57;2.58;;;8.90;76.60;;;;;;5091550;28;20406;-61
2022/01/09 11:18:56;;;;;;;10.70;2.38;;;9.10;76.30;;;;;;5092530;28;20032;-61
2022/01/09 11:21:47;;;;;;;12.98;2.25;;;9.20;76.10;;;;;;5089468;28;20475;-62
2022/01/09 11:24:40;;;;;;;7.55;1.98;;;9.40;76.00;;;;;;5090048;28;20103;-62
2022/01/09 11:27:25;;;;;;;12.50;2.47;;;9.60;75.80;;;;;;5091304;28;20482;-61
2022/01/09 11:30:24;;;;;;;12.20;3.17;;;9.80;75.30;;;;;;5092893;28;20437;-61
2022/01/09 11:33:20;;;;;;;9.50;2.05;;;9.90;74.70;;;;;;5092257;28;20081;-61
2022/01/09 11:36:24;;;;;;;7.38;1.75;;;9.90;74.60;;;;;;5090092;28;20453;-62
2022/01/09 11:39:14;;;;;;;7.78;2.10;;;9.90;74.40;;;;;;5090923;28;20048;-61
2022/01/09 11:41:42;;;;;;;8.10;2.72;;;9.90;74.50;;;;;;5092870;28;20035;-62
2022/01/09 11:44:10;;;;;;;11.48;1.98;;;9.90;74.50;;;;;;5092414;28;20043;-62
2022/01/09 11:46:59;;;;;;;10.20;3.20;;;9.90;74.50;;;;;;5092452;28;20046;-62
2022/01/09 11:49:27;;;;;;;7.63;2.05;;;9.90;74.30;;;;;;5093165;28;20036;-61
2022/01/09 11:51:59;;;;;;;6.45;1.85;;;9.90;74.30;;;;;;5093297;28;20024;-62
2022/01/09 11:54:26;;;;;;;8.70;1.83;;;9.90;74.20;;;;;;5093085;28;20085;-62
2022/01/09 11:57:08;;;;;;;8.48;1.77;;;9.80;74.10;;;;;;5095148;28;20498;-61
2022/01/09 11:59:37;;;;;;;6.65;1.92;;;9.80;74.00;;;;;;5094215;28;20123;-62
2022/01/09 12:02:13;;;;;;;17.35;2.67;;;9.70;74.00;;;;;;5076592;28;20375;-61
2022/01/09 12:04:50;;;;;;;7.80;2.03;;;9.60;74.00;;;;;;5094291;28;20032;-62
2022/01/09 12:07:19;;;;;;;9.32;2.00;;;9.60;74.00;;;;;;5094844;28;20089;-62
2022/01/09 12:09:50;;;;;;;6.82;2.50;;;9.50;74.00;;;;;;5094673;28;20064;-61
2022/01/09 12:12:22;;;;;;;7.50;1.73;;;9.50;73.90;;;;;;5093494;28;20028;-62
2022/01/09 12:14:54;;;;;;;6.18;2.08;;;9.50;73.90;;;;;;5093734;28;20027;-61
2022/01/09 12:17:23;;;;;;;9.07;1.88;;;9.50;74.10;;;;;;5094180;28;20103;-61
2022/01/09 12:20:02;;;;;;;8.65;1.75;;;9.40;74.00;;;;;;5076211;28;20032;-61
2022/01/09 12:22:44;;;;;;;17.48;2.50;;;9.40;74.00;;;;;;5093765;28;20024;-60
2022/01/09 12:25:25;;;;;;;5.75;1.58;;;9.50;74.00;;;;;;5094032;28;20100;-61
2022/01/09 12:27:54;;;;;;;;;;;9.50;73.90;;;;;;5093732;28;20067;-61
2022/01/09 12:30:32;;;;;;;6.55;1.85;;;9.50;74.10;;;;;;5092182;28;19942;-61
2022/01/09 12:33:05;;;;;;;7.85;2.10;;;9.50;74.00;;;;;;5094963;28;20028;-60
2022/01/09 12:35:31;;;;;;;7.60;2.38;;;9.50;74.00;;;;;;5091864;28;20028;-60
2022/01/09 12:37:58;;;;;;;8.80;2.47;;;9.50;73.90;;;;;;5085699;28;20032;-61
2022/01/09 12:40:25;;;;;;;7.25;2.15;;;9.60;73.80;;;;;;5084114;28;20054;-61
2022/01/09 12:42:56;;;;;;;12.45;2.92;;;9.60;73.70;;;;;;5088489;28;20089;-61
2022/01/09 12:45:31;;;;;;;9.70;2.53;;;9.60;73.60;;;;;;5094133;28;20028;-62
2022/01/09 12:47:58;;;;;;;8.75;2.45;;;9.50;74.30;;;;;;5074969;28;20055;-62
2022/01/09 12:50:36;;;;;;;9.20;1.85;;;9.50;73.70;;;;;;5094871;28;20437;-62
2022/01/09 12:53:27;;;;;;;6.88;2.17;;;9.60;73.70;;;;;;5093376;28;20024;-62
2022/01/09 12:56:06;;;;;;;7.47;2.10;;;9.60;73.70;;;;;;5093684;28;20025;-62
2022/01/09 12:58:54;;;;;;;5.88;1.85;;;9.60;73.70;;;;;;5086905;28;20043;-62
2022/01/09 13:01:28;;;;;;;7.22;1.75;;;9.50;73.70;;;;;;5094148;28;20056;-62